LOWW/VIE METAR and TAF weather

Enter ICAO airport designator
Station Type Date Time Source
LOWW METAR 2021/05/13 06:20 UTC NOAA

LOWW 130620Z 26010KT 6000 RA SCT013 BKN028 11/10 Q1002 TEMPO -RA


Station Type Date Time Source
LOWW Decoded METAR 2021/05/13 06:20 UTC NOAA

Wien / Schwechat-Flughafen, Austria (LOWW) 48-07N 016-34E 190M
May 13, 2021 - 02:20 AM EDT / 2021.05.13 0620 UTC
Wind: from the W (260 degrees) at 12 MPH (10 KT):0
Visibility: 3 mile(s):0
Sky conditions: mostly cloudy
Weather: rain
Temperature: 51 F (11 C)
Dew Point: 50 F (10 C)
Relative Humidity: 93%
Pressure (altimeter): 29.59 in. Hg (1002 hPa)
ob: LOWW 130620Z 26010KT 6000 RA SCT013 BKN028 11/10 Q1002 TEMPO -RA
cycle: 6

Station Type Date Time Source
LOWW TAF 2021/05/13 06:21 UTC NOAA

TAF LOWW 130515Z 1306/1412 28015KT 9999 BKN040 TX14/1412Z TN11/1403Z
TEMPO 1306/1314 29020G30KT -RA PROB30
TEMPO 1306/1311 RA
TEMPO 1402/1410 -RA

Example: see airport list